createdAt,value
2018-08-16T00:00:00.221Z,9.60
2018-08-16T00:01:00.196Z,10.40
2018-08-16T00:02:00.173Z,9.80
2018-08-16T00:03:00.150Z,9.70
2018-08-16T00:04:00.127Z,9.70
2018-08-16T00:05:00.100Z,9.40
2018-08-16T00:06:00.075Z,10.00
2018-08-16T00:07:00.098Z,10.20
2018-08-16T00:08:00.036Z,9.80
2018-08-16T00:09:00.012Z,9.50
2018-08-16T00:09:59.979Z,10.70
2018-08-16T00:11:00.157Z,9.80
2018-08-16T00:11:59.931Z,10.30
2018-08-16T00:12:59.905Z,10.20
2018-08-16T00:13:59.882Z,10.30
2018-08-16T00:14:59.858Z,10.30
2018-08-16T00:15:59.839Z,10.30
2018-08-16T00:16:59.809Z,10.50
2018-08-16T00:17:59.785Z,10.20
2018-08-16T00:18:59.761Z,10.20
2018-08-16T00:19:59.738Z,11.10
2018-08-16T00:20:59.712Z,10.50
2018-08-16T00:21:59.688Z,10.20
2018-08-16T00:22:59.664Z,10.60
2018-08-16T00:23:59.646Z,10.20
2018-08-16T00:24:59.616Z,11.20
2018-08-16T00:25:59.595Z,10.90
2018-08-16T00:26:59.568Z,10.80
2018-08-16T00:27:59.544Z,10.80
2018-08-16T00:28:59.722Z,10.30
2018-08-16T00:29:59.495Z,10.50
2018-08-16T00:30:59.474Z,11.20
2018-08-16T00:31:59.446Z,11.70
2018-08-16T00:32:59.422Z,11.60
2018-08-16T00:34:41.751Z,11.30
2018-08-16T00:35:41.524Z,11.30
2018-08-16T00:36:41.500Z,11.30
2018-08-16T00:37:41.476Z,11.40
2018-08-16T00:38:41.456Z,11.10
2018-08-16T00:39:41.427Z,11.40
2018-08-16T00:40:41.404Z,11.80
2018-08-16T00:41:41.379Z,10.70
2018-08-16T00:42:41.507Z,10.80
2018-08-16T00:43:41.329Z,11.30
2018-08-16T00:44:41.310Z,11.80
2018-08-16T00:45:41.283Z,11.20
2018-08-16T00:46:41.257Z,11.50
2018-08-16T00:47:41.232Z,11.20
2018-08-16T00:48:41.215Z,10.70
2018-08-16T00:49:41.187Z,10.70
2018-08-16T00:50:41.161Z,11.50
2018-08-16T00:51:41.136Z,11.60
2018-08-16T00:52:41.112Z,11.40
2018-08-16T00:53:41.087Z,11.40
2018-08-16T00:54:41.063Z,10.90
2018-08-16T00:55:41.038Z,11.10
2018-08-16T00:56:41.014Z,11.30
2018-08-16T00:57:40.992Z,11.10
2018-08-16T00:58:40.965Z,11.20
2018-08-16T00:59:40.940Z,11.40
2018-08-16T01:00:40.916Z,11.70
2018-08-16T01:01:40.895Z,11.40
2018-08-16T01:02:40.867Z,12.10
2018-08-16T01:03:40.850Z,11.70
2018-08-16T01:04:40.825Z,11.80
2018-08-16T01:05:40.795Z,11.20
2018-08-16T01:06:40.770Z,11.40
2018-08-16T01:07:40.747Z,11.70
2018-08-16T01:08:40.721Z,11.90
2018-08-16T01:09:40.697Z,11.30
2018-08-16T01:10:40.673Z,11.40
2018-08-16T01:11:40.646Z,11.30
2018-08-16T01:12:40.627Z,11.20
2018-08-16T01:13:40.599Z,10.90
2018-08-16T01:14:40.575Z,11.30
2018-08-16T01:15:40.550Z,12.00
2018-08-16T01:16:40.532Z,11.70
2018-08-16T01:17:40.535Z,11.80
2018-08-16T01:18:40.478Z,11.60
2018-08-16T01:19:40.453Z,12.00
2018-08-16T01:20:40.429Z,11.30
2018-08-16T01:21:40.404Z,11.90
2018-08-16T01:22:40.380Z,12.20
2018-08-16T01:23:40.357Z,11.50
2018-08-16T01:24:40.329Z,11.60
2018-08-16T01:25:40.307Z,11.80
2018-08-16T01:26:40.281Z,12.00
2018-08-16T01:27:40.256Z,11.50
2018-08-16T01:28:40.233Z,11.30
2018-08-16T01:29:40.207Z,12.10
2018-08-16T01:30:40.183Z,12.00
2018-08-16T01:31:40.158Z,12.10
2018-08-16T01:32:40.134Z,11.90
2018-08-16T01:33:40.115Z,11.40
2018-08-16T01:34:40.085Z,11.30
2018-08-16T01:35:40.135Z,11.90
2018-08-16T01:36:40.040Z,11.90
2018-08-16T01:37:40.012Z,12.00
2018-08-16T01:38:39.987Z,12.70
2018-08-16T01:39:39.962Z,12.30
2018-08-16T01:40:39.939Z,13.10
2018-08-16T01:41:39.913Z,11.30
2018-08-16T01:42:39.889Z,11.60
2018-08-16T01:43:39.864Z,12.00
2018-08-16T01:44:39.842Z,11.80
2018-08-16T01:45:39.815Z,12.10
2018-08-16T01:46:39.941Z,11.50
2018-08-16T01:47:39.765Z,12.00
2018-08-16T01:48:39.746Z,12.20
2018-08-16T01:49:39.718Z,11.80
2018-08-16T01:50:39.693Z,12.20
2018-08-16T01:51:39.668Z,11.80
2018-08-16T01:52:39.643Z,12.30
2018-08-16T01:53:39.619Z,12.40
2018-08-16T01:54:39.599Z,11.80
2018-08-16T01:55:39.573Z,11.50
2018-08-16T01:56:39.545Z,12.10
2018-08-16T01:57:39.521Z,12.20
2018-08-16T01:58:39.546Z,12.70
2018-08-16T01:59:39.472Z,13.10
2018-08-16T02:00:39.446Z,12.90
2018-08-16T02:01:39.424Z,12.90
2018-08-16T02:02:39.398Z,12.80
2018-08-16T02:03:39.373Z,12.90
2018-08-16T02:04:39.351Z,13.50
2018-08-16T02:05:39.324Z,12.60
2018-08-16T02:06:39.300Z,13.20
2018-08-16T02:07:39.274Z,13.20
2018-08-16T02:08:39.253Z,12.90
2018-08-16T02:09:39.228Z,13.40
2018-08-16T02:10:39.202Z,12.80
2018-08-16T02:11:39.175Z,13.70
2018-08-16T02:12:39.151Z,12.90
2018-08-16T02:13:39.130Z,12.50
2018-08-16T02:14:39.108Z,13.50
2018-08-16T02:15:39.078Z,13.50
2018-08-16T02:16:39.052Z,13.30
2018-08-16T02:17:39.029Z,13.40
2018-08-16T02:18:39.007Z,13.10
2018-08-16T02:19:38.979Z,12.70
2018-08-16T02:20:38.959Z,13.50
2018-08-16T02:21:38.931Z,13.50
2018-08-16T02:22:38.910Z,13.20
2018-08-16T02:23:38.880Z,13.90
2018-08-16T02:24:38.856Z,13.30
2018-08-16T02:25:38.834Z,13.50
2018-08-16T02:26:38.810Z,13.40
2018-08-16T02:27:38.783Z,14.20
2018-08-16T02:28:38.757Z,13.00
2018-08-16T02:29:38.733Z,13.70
2018-08-16T02:30:38.710Z,13.80
2018-08-16T02:31:38.683Z,14.00
2018-08-16T02:32:38.659Z,14.00
2018-08-16T02:33:38.649Z,14.10
2018-08-16T02:34:38.613Z,14.20
2018-08-16T02:35:38.583Z,14.70
2018-08-16T02:36:38.561Z,14.30
2018-08-16T02:37:38.534Z,14.80
2018-08-16T02:38:38.511Z,14.90
2018-08-16T02:39:38.486Z,15.00
2018-08-16T02:40:38.461Z,14.90
2018-08-16T02:41:38.439Z,15.00
2018-08-16T02:42:38.414Z,15.50
2018-08-16T02:43:38.389Z,15.50
2018-08-16T02:44:38.364Z,15.40
2018-08-16T02:45:38.338Z,15.50
2018-08-16T02:46:38.316Z,15.30
2018-08-16T02:47:38.289Z,15.50
2018-08-16T02:48:38.263Z,15.70
2018-08-16T02:49:38.240Z,15.10
2018-08-16T02:50:38.214Z,15.20
2018-08-16T02:51:38.368Z,16.20
2018-08-16T02:52:38.167Z,14.50
2018-08-16T02:53:38.144Z,15.20
2018-08-16T02:54:38.118Z,14.80
2018-08-16T02:55:38.092Z,15.50
2018-08-16T02:56:38.072Z,15.80
2018-08-16T02:57:38.039Z,16.40
2018-08-16T02:58:38.016Z,16.40
2018-08-16T02:59:37.991Z,15.70
2018-08-16T03:00:37.966Z,15.80
2018-08-16T03:01:37.941Z,15.30
2018-08-16T03:02:37.921Z,16.50
2018-08-16T03:03:37.890Z,15.40
2018-08-16T03:04:37.867Z,16.10
2018-08-16T03:05:37.841Z,16.60
2018-08-16T03:06:37.821Z,15.60
2018-08-16T03:07:37.794Z,16.00
2018-08-16T03:08:37.767Z,16.40
2018-08-16T03:09:37.743Z,15.50
2018-08-16T03:10:37.718Z,16.00
2018-08-16T03:11:37.693Z,16.30
2018-08-16T03:12:37.672Z,16.50
2018-08-16T03:13:37.646Z,16.30
2018-08-16T03:14:37.625Z,16.90
2018-08-16T03:15:37.595Z,16.00
2018-08-16T03:16:37.569Z,16.50
2018-08-16T03:17:37.545Z,16.50
2018-08-16T03:18:37.520Z,16.90
2018-08-16T03:19:37.494Z,16.80
2018-08-16T03:20:37.473Z,16.40
2018-08-16T03:21:37.446Z,17.10
2018-08-16T03:22:37.430Z,17.30
2018-08-16T03:23:37.398Z,17.70
2018-08-16T03:24:37.377Z,17.60
2018-08-16T03:25:37.347Z,18.10
2018-08-16T03:26:37.524Z,17.90
2018-08-16T03:27:37.299Z,18.50
2018-08-16T03:28:37.272Z,17.10
2018-08-16T03:29:37.249Z,17.40
2018-08-16T03:30:37.223Z,17.70
2018-08-16T03:31:37.203Z,17.20
2018-08-16T03:32:37.172Z,17.90
2018-08-16T03:33:37.148Z,16.70
2018-08-16T03:34:37.123Z,17.50
2018-08-16T03:35:37.098Z,18.10
2018-08-16T03:36:37.073Z,16.90
2018-08-16T03:37:37.056Z,17.50
2018-08-16T03:38:37.024Z,17.60
2018-08-16T03:39:37.007Z,18.10
2018-08-16T03:40:36.974Z,18.20
2018-08-16T03:41:36.953Z,18.60
2018-08-16T03:42:36.924Z,18.20
2018-08-16T03:43:36.899Z,18.50
2018-08-16T03:44:36.875Z,18.10
2018-08-16T03:45:36.851Z,18.30
2018-08-16T03:46:36.825Z,17.90
2018-08-16T03:47:36.799Z,18.90
2018-08-16T03:48:36.777Z,17.20
2018-08-16T03:49:36.751Z,18.70
2018-08-16T03:50:36.726Z,19.10
2018-08-16T03:51:36.703Z,19.90
2018-08-16T03:52:36.678Z,19.60
2018-08-16T03:53:36.654Z,19.00
2018-08-16T03:54:36.626Z,19.60
2018-08-16T03:55:36.751Z,19.60
2018-08-16T03:56:36.577Z,20.10
2018-08-16T03:57:36.550Z,19.30
2018-08-16T03:58:36.527Z,20.50
2018-08-16T03:59:36.501Z,19.60
2018-08-16T04:00:36.477Z,21.00
2018-08-16T04:01:36.452Z,21.10
2018-08-16T04:02:36.432Z,21.00
2018-08-16T04:03:36.408Z,20.40
2018-08-16T04:04:36.377Z,20.50
2018-08-16T04:05:36.353Z,20.90
2018-08-16T04:06:36.330Z,20.30
2018-08-16T04:07:36.303Z,19.50
2018-08-16T04:08:36.280Z,20.10
2018-08-16T04:09:36.253Z,20.60
2018-08-16T04:10:36.227Z,20.20
2018-08-16T04:11:36.202Z,20.90
2018-08-16T04:12:36.177Z,19.90
2018-08-16T04:13:36.152Z,20.60
2018-08-16T04:14:36.128Z,20.50
2018-08-16T04:15:36.103Z,20.80
2018-08-16T04:16:36.081Z,21.90
2018-08-16T04:17:36.056Z,21.20
2018-08-16T04:18:36.054Z,20.80
2018-08-16T04:19:36.005Z,22.40
2018-08-16T04:20:35.982Z,23.30
2018-08-16T04:21:35.953Z,21.60
2018-08-16T04:22:35.929Z,21.50
2018-08-16T04:23:35.942Z,21.40
2018-08-16T04:24:35.882Z,21.90
2018-08-16T04:25:35.854Z,22.30
2018-08-16T04:26:35.830Z,21.90
2018-08-16T04:27:35.808Z,22.10
2018-08-16T04:28:35.782Z,22.30
2018-08-16T04:29:35.757Z,21.80
2018-08-16T04:30:35.884Z,22.10
2018-08-16T04:31:35.704Z,21.50
2018-08-16T04:32:35.678Z,22.50
2018-08-16T04:33:35.655Z,20.90
2018-08-16T04:34:35.629Z,21.60
2018-08-16T04:35:35.632Z,21.00
2018-08-16T04:36:35.582Z,21.00
2018-08-16T04:37:35.554Z,21.30
2018-08-16T04:38:35.531Z,21.00
2018-08-16T04:39:35.506Z,19.30
2018-08-16T04:40:35.483Z,20.80
2018-08-16T04:41:35.493Z,20.40
2018-08-16T04:42:35.433Z,19.80
2018-08-16T04:43:35.408Z,19.60
2018-08-16T04:44:35.382Z,19.10
2018-08-16T04:45:35.358Z,19.50
2018-08-16T04:46:35.335Z,18.40
2018-08-16T04:47:35.308Z,18.70
2018-08-16T04:48:35.331Z,19.20
2018-08-16T04:49:35.262Z,18.60
2018-08-16T04:50:35.235Z,18.20
2018-08-16T04:51:35.209Z,18.10
2018-08-16T04:52:35.186Z,18.40
2018-08-16T04:53:35.162Z,17.70
2018-08-16T04:54:35.137Z,18.10
2018-08-16T04:55:35.113Z,17.60
2018-08-16T04:56:35.091Z,17.80
2018-08-16T04:57:35.074Z,17.60
2018-08-16T04:58:35.040Z,16.40
2018-08-16T04:59:35.015Z,17.40
2018-08-16T05:00:34.993Z,16.40
2018-08-16T05:01:34.968Z,16.90
2018-08-16T05:02:34.944Z,15.90
2018-08-16T05:03:34.919Z,15.80
2018-08-16T05:04:34.894Z,14.90
2018-08-16T05:05:34.871Z,15.10
2018-08-16T05:06:34.849Z,15.00
2018-08-16T05:07:34.822Z,14.60
2018-08-16T05:08:34.802Z,14.30
2018-08-16T05:09:34.775Z,14.80
2018-08-16T05:10:34.751Z,14.40
2018-08-16T05:11:34.728Z,14.60
2018-08-16T05:12:34.702Z,13.80
2018-08-16T05:13:34.679Z,14.10
2018-08-16T05:14:34.660Z,14.60
2018-08-16T05:15:34.633Z,13.80
2018-08-16T05:16:34.610Z,13.90
2018-08-16T05:17:34.586Z,13.40
2018-08-16T05:18:34.561Z,14.60
2018-08-16T05:19:34.536Z,13.90
2018-08-16T05:20:34.516Z,13.30
2018-08-16T05:21:34.492Z,13.40
2018-08-16T05:22:34.467Z,13.80
2018-08-16T05:23:34.444Z,13.40
2018-08-16T05:24:34.421Z,13.90
2018-08-16T05:25:34.404Z,13.60
2018-08-16T05:26:34.373Z,13.10
2018-08-16T05:27:34.349Z,14.00
2018-08-16T05:28:34.370Z,13.40
2018-08-16T05:29:34.305Z,13.40
2018-08-16T05:30:34.279Z,12.80
2018-08-16T05:31:34.289Z,12.80
2018-08-16T05:32:34.235Z,12.70
2018-08-16T05:33:34.209Z,13.40
2018-08-16T05:34:34.189Z,13.40
2018-08-16T05:35:34.167Z,12.30
2018-08-16T05:36:34.138Z,12.90
2018-08-16T05:37:34.120Z,12.80
2018-08-16T05:38:34.093Z,12.30
2018-08-16T05:39:34.076Z,12.60
2018-08-16T05:40:34.203Z,12.50
2018-08-16T05:41:34.024Z,12.40
2018-08-16T05:42:34.005Z,13.40
2018-08-16T05:43:34.038Z,12.70
2018-08-16T05:44:33.956Z,12.90
2018-08-16T05:45:33.934Z,12.50
2018-08-16T05:46:34.112Z,12.10
2018-08-16T05:47:33.892Z,12.90
2018-08-16T05:48:33.867Z,12.70
2018-08-16T05:49:33.842Z,12.00
2018-08-16T05:50:33.821Z,12.40
2018-08-16T05:51:33.801Z,11.90
2018-08-16T05:52:33.777Z,12.00
2018-08-16T05:53:33.755Z,11.50
2018-08-16T05:54:33.730Z,12.10
2018-08-16T05:55:33.711Z,11.80
2018-08-16T05:56:33.693Z,11.80
2018-08-16T05:57:33.663Z,12.20
2018-08-16T05:58:33.641Z,11.30
2018-08-16T05:59:33.622Z,12.00
2018-08-16T06:00:33.596Z,11.60
2018-08-16T06:01:33.575Z,11.30
2018-08-16T06:02:33.553Z,11.90
2018-08-16T06:03:33.530Z,11.80
2018-08-16T06:04:33.511Z,11.50
2018-08-16T06:05:33.488Z,11.50
2018-08-16T06:06:33.465Z,11.40
2018-08-16T06:07:33.474Z,11.60
2018-08-16T06:08:33.429Z,11.80
2018-08-16T06:09:33.402Z,11.30
2018-08-16T06:10:33.382Z,10.90
2018-08-16T06:11:33.357Z,11.30
2018-08-16T06:12:33.340Z,11.20
2018-08-16T06:13:33.314Z,10.80
2018-08-16T06:14:33.292Z,11.40
2018-08-16T06:15:33.348Z,11.10
2018-08-16T06:16:33.250Z,11.20
2018-08-16T06:17:33.231Z,10.90
2018-08-16T06:18:33.617Z,10.90
2018-08-16T06:19:33.190Z,11.30
2018-08-16T06:20:33.168Z,11.30
2018-08-16T06:21:33.346Z,10.10
2018-08-16T06:22:33.325Z,10.90
2018-08-16T06:23:33.101Z,10.40
2018-08-16T06:24:33.080Z,10.90
2018-08-16T06:25:33.060Z,10.90
2018-08-16T06:26:33.242Z,10.80
2018-08-16T06:27:33.018Z,10.50
2018-08-16T06:28:33.199Z,10.40
2018-08-16T06:29:32.977Z,10.40
2018-08-16T06:30:32.957Z,10.50
2018-08-16T06:31:33.165Z,10.00
2018-08-16T06:32:32.935Z,9.80
2018-08-16T06:34:15.051Z,10.40
2018-08-16T06:35:15.030Z,10.20
2018-08-16T06:36:15.010Z,10.30
2018-08-16T06:37:14.995Z,10.10
2018-08-16T06:38:14.974Z,10.20
2018-08-16T06:39:14.949Z,11.10
2018-08-16T06:40:15.139Z,10.50
2018-08-16T06:41:15.113Z,10.30
2018-08-16T06:42:14.891Z,10.60
2018-08-16T06:43:15.073Z,10.60
2018-08-16T06:44:17.675Z,10.50
2018-08-16T06:45:15.037Z,9.40
2018-08-16T06:46:15.069Z,10.00
2018-08-16T06:47:14.792Z,9.90
2018-08-16T06:48:14.774Z,10.60
2018-08-16T06:49:14.755Z,9.70
2018-08-16T06:50:14.736Z,10.30
2018-08-16T06:51:14.918Z,9.80
2018-08-16T06:52:14.898Z,10.10
2018-08-16T06:53:14.677Z,10.20
2018-08-16T06:54:14.663Z,10.20
2018-08-16T06:55:14.640Z,10.70
2018-08-16T06:56:14.621Z,9.80
2018-08-16T06:57:14.601Z,9.70
2018-08-16T06:58:14.640Z,10.00
2018-08-16T06:59:14.564Z,10.20
2018-08-16T07:00:14.545Z,10.30
2018-08-16T07:01:14.532Z,10.30
2018-08-16T07:02:14.512Z,9.90
2018-08-16T07:03:14.693Z,9.60
2018-08-16T07:04:14.673Z,10.50
2018-08-16T07:05:14.453Z,10.40
2018-08-16T07:06:14.435Z,9.70
2018-08-16T07:07:14.416Z,9.70
2018-08-16T07:08:14.600Z,10.40
2018-08-16T07:09:14.582Z,10.50
2018-08-16T07:10:14.565Z,10.30
2018-08-16T07:11:14.345Z,10.50
2018-08-16T07:12:56.686Z,9.80
2018-08-16T07:13:56.666Z,10.30
2018-08-16T07:14:57.053Z,10.00
2018-08-16T07:15:56.635Z,10.50
2018-08-16T07:16:56.412Z,10.20
2018-08-16T07:17:56.393Z,10.60
2018-08-16T07:18:56.375Z,10.70
2018-08-16T07:19:56.359Z,10.60
2018-08-16T07:20:56.342Z,10.50
2018-08-16T07:21:56.324Z,10.00
2018-08-16T07:22:56.514Z,10.60
2018-08-16T07:23:56.491Z,10.90
2018-08-16T07:24:56.534Z,9.80
2018-08-16T07:25:56.457Z,10.90
2018-08-16T07:26:56.237Z,10.40
2018-08-16T07:27:56.227Z,10.70
2018-08-16T07:28:56.203Z,10.80
2018-08-16T07:30:38.544Z,10.90
2018-08-16T07:31:41.761Z,11.10
2018-08-16T07:32:38.511Z,11.10
2018-08-16T08:21:25.134Z,13.40
2018-08-16T08:22:25.118Z,13.70
2018-08-16T08:23:25.104Z,13.20
2018-08-16T08:24:25.093Z,13.80
2018-08-16T08:25:24.867Z,13.50
2018-08-16T08:26:25.051Z,13.60
2018-08-16T08:27:25.039Z,14.10
2018-08-16T08:28:27.642Z,13.70
2018-08-16T08:29:25.005Z,13.80
2018-08-16T08:30:24.992Z,14.70
2018-08-16T08:31:24.776Z,13.90
2018-08-16T08:32:24.960Z,15.10
2018-08-16T08:33:24.743Z,14.40
2018-08-16T08:34:24.725Z,14.10
2018-08-16T08:35:24.916Z,14.20
2018-08-16T08:36:26.113Z,15.00
2018-08-16T08:37:24.886Z,14.90
2018-08-16T08:38:24.681Z,14.50
2018-08-16T08:39:24.653Z,15.40
2018-08-16T08:40:24.844Z,14.00
2018-08-16T08:41:24.628Z,14.60
2018-08-16T08:42:24.610Z,13.90
2018-08-16T08:43:24.598Z,13.80
2018-08-16T08:44:24.583Z,14.30
2018-08-16T08:45:24.569Z,14.50
2018-08-16T08:46:24.564Z,13.20
2018-08-16T08:47:24.539Z,14.10
2018-08-16T08:48:24.527Z,14.50
2018-08-16T08:49:24.512Z,14.30
2018-08-16T08:50:24.726Z,14.70
2018-08-16T08:51:24.686Z,14.20
2018-08-16T08:52:25.278Z,13.90
2018-08-16T08:53:24.666Z,14.60
2018-08-16T08:56:31.124Z,13.30
2018-08-16T08:57:31.109Z,13.60
2018-08-16T08:58:30.892Z,13.60
2018-08-16T08:59:31.007Z,13.70
2018-08-16T09:00:31.072Z,12.80
2018-08-16T09:01:30.852Z,12.10
2018-08-16T09:02:30.835Z,11.60
2018-08-16T09:03:31.024Z,11.00
2018-08-16T09:05:55.330Z,10.60
2018-08-16T09:06:55.117Z,9.90
2018-08-16T09:07:55.303Z,9.40
2018-08-16T09:08:55.289Z,10.50
2018-08-16T09:09:55.275Z,11.20
2018-08-16T09:10:55.463Z,10.30
2018-08-16T09:11:55.248Z,11.10
2018-08-16T09:12:57.855Z,11.10
2018-08-16T09:13:55.221Z,11.20
2018-08-16T09:14:55.231Z,12.10
2018-08-16T09:15:55.196Z,10.90
2018-08-16T09:16:57.600Z,10.20
2018-08-16T09:17:55.166Z,9.70
2018-08-16T09:19:37.312Z,9.20
2018-08-16T09:20:37.302Z,8.50
2018-08-16T09:21:37.286Z,8.90
2018-08-16T09:22:37.271Z,10.60
2018-08-16T09:25:01.580Z,10.30
2018-08-16T09:26:01.564Z,8.30
2018-08-16T09:27:04.174Z,7.70
2018-08-16T09:28:01.333Z,8.10
2018-08-16T09:29:01.318Z,6.70
2018-08-16T09:30:01.512Z,6.70
2018-08-16T09:31:01.537Z,6.40
2018-08-16T09:32:01.884Z,7.80
2018-08-16T09:33:01.464Z,5.50
2018-08-16T09:38:14.591Z,5.70
2018-08-16T09:39:56.581Z,5.50
2018-08-16T09:40:56.310Z,5.50
2018-08-16T09:41:56.293Z,5.30
2018-08-16T09:42:56.276Z,5.00
2018-08-16T09:43:56.267Z,5.00
2018-08-16T09:44:56.448Z,5.10
2018-08-16T09:45:56.225Z,5.20
2018-08-16T09:46:56.208Z,6.30
2018-08-16T09:47:56.203Z,5.50
2018-08-16T09:48:56.174Z,6.10
2018-08-16T09:49:56.157Z,5.80
2018-08-16T09:50:56.142Z,5.80
2018-08-16T09:51:56.125Z,7.10
2018-08-16T09:52:56.109Z,7.10
2018-08-16T09:53:56.093Z,7.20
2018-08-16T09:54:56.079Z,5.60
2018-08-16T09:55:56.062Z,5.70
2018-08-16T09:56:56.044Z,6.60
2018-08-16T10:00:44.865Z,6.90
2018-08-16T10:01:44.646Z,6.60
2018-08-16T10:02:46.072Z,7.00
2018-08-16T10:10:46.406Z,4.60
2018-08-16T10:11:46.391Z,4.40
2018-08-16T10:12:46.172Z,3.90
2018-08-16T10:13:47.371Z,4.90
2018-08-16T10:14:46.349Z,6.30
2018-08-16T10:15:46.128Z,5.80
2018-08-16T10:16:46.115Z,4.10
2018-08-16T10:17:46.106Z,5.30
2018-08-16T10:18:46.085Z,4.70
2018-08-16T10:19:46.070Z,5.10
2018-08-16T10:20:46.269Z,5.00
2018-08-16T10:21:46.246Z,4.80
2018-08-16T10:22:46.029Z,4.80
2018-08-16T10:23:46.013Z,3.90
2018-08-16T10:24:46.202Z,4.00
2018-08-16T10:25:47.200Z,4.00
2018-08-16T10:26:45.973Z,4.40
2018-08-16T10:27:45.959Z,4.70
2018-08-16T10:28:45.944Z,5.20
2018-08-16T10:29:45.931Z,4.50
2018-08-16T10:30:45.917Z,5.00
2018-08-16T10:31:45.903Z,4.30
2018-08-16T10:32:45.888Z,4.00
2018-08-16T10:33:45.879Z,4.20
2018-08-16T10:34:45.866Z,4.30
2018-08-16T10:35:45.844Z,4.10
2018-08-16T10:36:45.829Z,3.70
2018-08-16T10:37:45.833Z,4.60
2018-08-16T10:38:45.800Z,3.60
2018-08-16T10:39:45.787Z,4.00
2018-08-16T10:40:45.770Z,4.40
2018-08-16T10:41:45.754Z,4.30
2018-08-16T10:42:45.942Z,4.30
2018-08-16T10:43:48.549Z,4.00
2018-08-16T10:44:45.913Z,4.10
2018-08-16T10:45:48.518Z,4.60
2018-08-16T10:46:45.884Z,4.20
2018-08-16T10:47:45.867Z,5.70
2018-08-16T10:50:52.327Z,5.30
2018-08-16T10:51:52.115Z,5.30
2018-08-16T10:52:52.096Z,5.50
2018-08-16T10:53:52.090Z,5.10
2018-08-16T10:54:52.878Z,5.30
2018-08-16T10:55:52.256Z,5.50
2018-08-16T10:56:52.192Z,5.40
2018-08-16T10:57:52.024Z,5.30
2018-08-16T10:58:52.014Z,5.00
2018-08-16T10:59:51.998Z,4.70
2018-08-16T11:00:51.983Z,4.80
2018-08-16T11:02:34.332Z,4.50
2018-08-16T11:03:34.319Z,4.80
2018-08-16T11:04:34.311Z,5.00
2018-08-16T11:05:34.293Z,4.30
2018-08-16T11:12:53.729Z,4.00
2018-08-16T11:13:53.507Z,4.10
2018-08-16T11:14:53.696Z,4.10
2018-08-16T11:15:53.685Z,3.90
2018-08-16T11:16:53.669Z,4.70
2018-08-16T11:17:53.657Z,4.40
2018-08-16T11:18:53.720Z,4.50
2018-08-16T11:19:54.643Z,4.60
2018-08-16T11:20:53.417Z,4.60
2018-08-16T11:22:35.773Z,3.30
2018-08-16T11:23:35.553Z,3.40
2018-08-16T11:24:35.540Z,4.00
2018-08-16T11:25:35.532Z,3.90
2018-08-16T11:26:35.513Z,3.90
2018-08-16T11:27:35.500Z,3.30
2018-08-16T11:28:35.498Z,3.30
2018-08-16T11:29:35.482Z,3.70
2018-08-16T11:30:35.516Z,3.60
2018-08-16T11:31:35.447Z,4.10
2018-08-16T11:32:35.436Z,4.00
2018-08-16T11:33:35.424Z,4.70
2018-08-16T11:34:35.408Z,4.90
2018-08-16T11:35:35.409Z,4.80
2018-08-16T11:36:35.530Z,5.00
2018-08-16T11:37:35.367Z,4.90
2018-08-16T11:38:35.353Z,3.90
2018-08-16T11:39:35.339Z,5.00
2018-08-16T11:40:35.383Z,5.10
2018-08-16T11:41:35.312Z,3.80
2018-08-16T11:42:35.300Z,3.60
2018-08-16T11:43:35.283Z,4.60
2018-08-16T11:44:35.270Z,5.30
2018-08-16T11:45:35.256Z,4.30
2018-08-16T11:46:35.320Z,4.00
2018-08-16T11:47:35.231Z,4.60
2018-08-16T11:48:35.218Z,5.40
2018-08-16T11:49:35.200Z,4.90
2018-08-16T11:50:35.185Z,5.60
2018-08-16T11:51:35.172Z,5.70
2018-08-16T11:52:35.357Z,4.50
2018-08-16T11:53:35.343Z,3.80
2018-08-16T11:54:35.126Z,5.40
2018-08-16T11:55:35.111Z,5.80
2018-08-16T11:56:35.099Z,4.70
2018-08-16T11:57:35.084Z,5.00
2018-08-16T11:58:35.121Z,5.10
2018-08-16T11:59:35.053Z,4.10
2018-08-16T12:00:35.039Z,4.60
2018-08-16T12:01:35.026Z,5.00
2018-08-16T12:02:35.013Z,4.90
2018-08-16T12:03:34.997Z,4.60
2018-08-16T12:04:35.198Z,4.50
2018-08-16T12:05:34.973Z,5.10
2018-08-16T12:06:34.958Z,4.70
2018-08-16T12:07:34.943Z,4.40
2018-08-16T12:08:34.930Z,4.10
2018-08-16T12:09:34.919Z,3.80
2018-08-16T12:10:35.107Z,4.00
2018-08-16T12:11:34.890Z,4.70
2018-08-16T12:12:34.876Z,4.70
2018-08-16T12:13:34.865Z,4.20
2018-08-16T12:14:34.898Z,3.90
2018-08-16T12:15:34.837Z,4.40
2018-08-16T12:16:34.823Z,4.00
2018-08-16T12:17:34.809Z,3.80
2018-08-16T12:18:34.798Z,3.90
2018-08-16T12:19:34.789Z,4.10
2018-08-16T12:20:34.770Z,4.10
2018-08-16T12:21:34.758Z,3.60
2018-08-16T12:22:34.748Z,3.40
2018-08-16T12:23:34.731Z,3.70
2018-08-16T12:24:34.717Z,4.30
2018-08-16T12:25:34.710Z,4.00
2018-08-16T12:26:34.692Z,4.10
2018-08-16T12:27:34.677Z,4.10
2018-08-16T12:28:34.665Z,4.40
2018-08-16T12:29:34.655Z,4.10
2018-08-16T12:30:34.694Z,4.30
2018-08-16T12:31:34.633Z,4.50
2018-08-16T12:32:34.613Z,4.60
2018-08-16T12:33:34.603Z,4.50
2018-08-16T12:34:34.588Z,4.50
2018-08-16T12:35:34.573Z,4.60
2018-08-16T12:36:34.560Z,4.80
2018-08-16T12:37:34.550Z,5.00
2018-08-16T12:38:34.532Z,4.80
2018-08-16T12:39:34.517Z,4.90
2018-08-16T12:40:34.505Z,4.50
2018-08-16T12:41:34.489Z,4.70
2018-08-16T12:42:34.475Z,4.50
2018-08-16T12:43:34.665Z,4.70
2018-08-16T12:44:34.446Z,4.60
2018-08-16T12:45:34.431Z,5.10
2018-08-16T12:46:34.424Z,4.70
2018-08-16T12:47:34.417Z,3.30
2018-08-16T12:48:34.388Z,3.20
2018-08-16T12:49:34.375Z,3.50
2018-08-16T12:50:34.363Z,4.10
2018-08-16T12:51:34.346Z,4.10
2018-08-16T12:52:34.535Z,4.10
2018-08-16T12:53:34.371Z,4.50
2018-08-16T12:54:34.514Z,4.40
2018-08-16T12:55:34.292Z,3.80
2018-08-16T12:56:34.278Z,4.00
2018-08-16T12:57:34.267Z,4.10
2018-08-16T12:58:37.080Z,3.60
2018-08-16T12:59:34.241Z,2.90
2018-08-16T13:00:34.230Z,3.50
2018-08-16T13:01:35.633Z,3.20
2018-08-16T13:02:34.204Z,3.60
2018-08-16T13:03:34.191Z,4.00
2018-08-16T13:04:34.184Z,3.80
2018-08-16T13:05:34.169Z,3.50
2018-08-16T13:06:34.152Z,3.40
2018-08-16T13:07:34.143Z,4.20
2018-08-16T13:08:34.135Z,3.90
2018-08-16T13:09:38.150Z,3.70
2018-08-16T13:10:34.305Z,3.80
2018-08-16T13:11:34.089Z,3.90
2018-08-16T13:12:34.075Z,3.50
2018-08-16T13:13:34.064Z,3.80
2018-08-16T13:14:34.049Z,3.50
2018-08-16T13:15:34.040Z,3.30
2018-08-16T13:16:34.019Z,3.00
2018-08-16T13:18:16.167Z,3.20
2018-08-16T13:19:16.152Z,3.30
2018-08-16T13:20:16.138Z,3.20
2018-08-16T13:21:16.126Z,3.20
2018-08-16T13:22:16.111Z,3.00
2018-08-16T13:23:16.095Z,4.00
2018-08-16T13:24:16.285Z,4.00
2018-08-16T13:25:16.070Z,3.60
2018-08-16T13:26:16.056Z,3.60
2018-08-16T13:27:16.042Z,4.00
2018-08-16T13:28:16.028Z,3.70
2018-08-16T13:29:16.019Z,3.90
2018-08-16T13:30:16.003Z,3.60
2018-08-16T13:31:16.066Z,3.90
2018-08-16T13:32:15.976Z,4.00
2018-08-16T13:33:16.115Z,3.50
2018-08-16T13:34:16.154Z,3.50
2018-08-16T13:35:15.937Z,3.60
2018-08-16T13:36:15.927Z,3.50
2018-08-16T13:37:15.977Z,3.70
2018-08-16T13:38:15.898Z,3.80
2018-08-16T13:39:15.883Z,3.00
2018-08-16T13:40:15.871Z,3.50
2018-08-16T13:41:15.860Z,3.60
2018-08-16T13:42:15.854Z,3.40
2018-08-16T13:43:15.835Z,4.00
2018-08-16T13:44:16.027Z,4.10
2018-08-16T13:45:15.807Z,4.10
2018-08-16T13:46:15.794Z,4.30
2018-08-16T13:47:15.780Z,3.90
2018-08-16T13:48:15.826Z,4.30
2018-08-16T13:49:15.758Z,4.00
2018-08-16T13:50:15.740Z,4.10
2018-08-16T13:51:58.087Z,4.00
2018-08-16T13:52:58.074Z,4.20
2018-08-16T13:53:57.862Z,3.80
2018-08-16T13:54:57.859Z,3.90
2018-08-16T13:55:57.836Z,4.00
2018-08-16T13:56:57.822Z,4.10
2018-08-16T13:57:57.804Z,3.90
2018-08-16T13:58:57.792Z,4.10
2018-08-16T13:59:57.776Z,4.10
2018-08-16T14:00:57.762Z,3.70
2018-08-16T14:01:57.749Z,2.80
2018-08-16T14:02:57.735Z,4.00
2018-08-16T14:03:57.723Z,4.20
2018-08-16T14:04:57.708Z,3.80
2018-08-16T14:05:57.695Z,3.70
2018-08-16T14:06:57.685Z,3.80
2018-08-16T14:07:57.667Z,4.30
2018-08-16T14:08:57.658Z,3.50
2018-08-16T14:09:57.639Z,3.80
2018-08-16T14:11:00.451Z,3.20
2018-08-16T14:11:57.618Z,3.40
2018-08-16T14:12:57.603Z,3.70
2018-08-16T14:13:57.789Z,3.30
2018-08-16T14:14:57.774Z,3.70
2018-08-16T14:15:57.597Z,3.90
2018-08-16T14:16:57.546Z,3.60
2018-08-16T14:17:57.536Z,3.20
2018-08-16T14:18:57.527Z,3.50
2018-08-16T14:19:57.527Z,3.40
2018-08-16T14:20:57.695Z,3.40
2018-08-16T14:21:57.479Z,3.50
2018-08-16T14:22:57.473Z,3.60
2018-08-16T14:23:57.659Z,3.50